Météo Nord-Pas-de-Calais   La météo au plus près de chez vous

Station météorologique

Observations météo à Nimes-Courbessac (30189)

30189001 59 m Dernier relevé à 05:00
23.5°C
Humidité 41 % Vent 10.8 km/h 1019.3 hPa

Journée consultée

Vendredi 4 Septembre 2026

Synthèse de la journée

Périodes de référence en UTC

Température maximale

36.4°C

à 17:12

06h 06h

Température minimale

23.3°C

à 04:48

18h 18h

Rafale maximale

23 km/h

à 02:06

00h 00h

Précipitations

0 mm

Cumul quotidien

06h 06h

Ensoleillement

0h 0 mins

Durée quotidienne

00h 00h

Graphiques de la journée

Heure locale Réduire

Données détaillées

Relevés météo

Pas de 6 minutes Afficher les relevés infra-horaires
Relevés météo détaillés à Nimes-Courbessac pour le Vendredi 4 Septembre 2026
Heure Température °C Point de rosée °C Humidité % Vent moyen (raf.), km/h Précipitations mm Température à 10 cm °C Température à 20 cm °C Température à 50 cm °C État du sol   Hauteur neige cm Ensoleillement min Rayonnement global W/m² Pression hPa
05:00 23.5 °C 10.5 °C 44 % 13 km/h (20 km/h) 0 mm0 mm 28 °C 27.4 °C 27.9 °C 2   0 cm 0 min 0 W/m² 1018.7 hPa
04:54 23.4 °C 10.4 °C 44 % 13 km/h (20 km/h) 0 mm0 mm 28.1 °C 27.3 °C 27.9 °C 2   0 cm 0 min 0 W/m² 1018.8 hPa
04:48 23.3 °C 10.4 °C 44 % 13 km/h (18 km/h) 0 mm0 mm 28.1 °C 27.4 °C 27.9 °C 2   0 cm 0 min 0 W/m² 1018.9 hPa
04:42 23.4 °C 10.4 °C 44 % 12 km/h (16 km/h) 0 mm0 mm 28.1 °C 27.5 °C 27.9 °C 2   0 cm 0 min 0 W/m² 1019 hPa
04:36 23.5 °C 10.5 °C 44 % 12 km/h (16 km/h) 0 mm0 mm 28.1 °C 27.5 °C 27.9 °C 2   0 cm 0 min 0 W/m² 1019.1 hPa
04:30 23.7 °C 10.4 °C 43 % 12 km/h (18 km/h) 0 mm0 mm 28.2 °C 27.5 °C 27.9 °C 2   0 cm 0 min 0 W/m² 1019.1 hPa
04:24 23.9 °C 10.6 °C 43 % 11 km/h (17 km/h) 0 mm0 mm 28.2 °C 27.6 °C 27.9 °C 2   0 cm 0 min 0 W/m² 1019.2 hPa
04:18 24 °C 10.6 °C 43 % 11 km/h (19 km/h) 0 mm0 mm 28.2 °C 27.6 °C 27.9 °C 2   0 cm 0 min 0 W/m² 1019.3 hPa
04:12 24.3 °C 10.6 °C 42 % 11 km/h (19 km/h) 0 mm0 mm 28.2 °C 27.6 °C 27.9 °C 2   0 cm 0 min 0 W/m² 1019.3 hPa
04:06 24.4 °C 10.7 °C 42 % 11 km/h (18 km/h) 0 mm0 mm 28.3 °C 27.6 °C 27.9 °C 2   0 cm 0 min 0 W/m² 1019.3 hPa
04:00 24.5 °C 10.4 °C 41 % 11 km/h (18 km/h) 0 mm0 mm 28.3 °C 27.6 °C 27.9 °C 2   0 cm 0 min 0 W/m² 1019.3 hPa
03:54 24.7 °C 10.6 °C 41 % 12 km/h (19 km/h) 0 mm0 mm 28.3 °C 27.7 °C 27.9 °C 2   0 cm 0 min 0 W/m² 1019.3 hPa
03:48 24.8 °C 10.3 °C 40 % 12 km/h (19 km/h) 0 mm0 mm 28.3 °C 27.7 °C 27.9 °C 2   0 cm 0 min 0 W/m² 1019.3 hPa
03:42 25 °C 10.5 °C 40 % 10 km/h (18 km/h) 0 mm0 mm 28.4 °C 27.8 °C 27.9 °C 2   0 cm 0 min 0 W/m² 1019.3 hPa
03:36 25.2 °C 10.3 °C 39 % 8 km/h (15 km/h) 0 mm0 mm 28.4 °C 27.8 °C 27.9 °C 2   0 cm 0 min 0 W/m² 1019.4 hPa
03:30 25.5 °C 10.1 °C 38 % 8 km/h (15 km/h) 0 mm0 mm 28.4 °C 27.8 °C 27.9 °C 2   0 cm 0 min 0 W/m² 1019.4 hPa
03:24 25.6 °C 10.2 °C 38 % 9 km/h (16 km/h) 0 mm0 mm 28.5 °C 27.9 °C 27.9 °C 2   0 cm 0 min 0 W/m² 1019.4 hPa
03:18 25.7 °C 10.3 °C 38 % 9 km/h (16 km/h) 0 mm0 mm 28.5 °C 27.9 °C 27.9 °C 2   0 cm 0 min 0 W/m² 1019.4 hPa
03:12 25.6 °C 10.2 °C 38 % 9 km/h (15 km/h) 0 mm0 mm 28.5 °C 28 °C 27.9 °C 2   0 cm 0 min 0 W/m² 1019.3 hPa
03:06 25.6 °C 10.2 °C 38 % 6 km/h (15 km/h) 0 mm0 mm 28.5 °C 27.9 °C 27.9 °C 2   0 cm 0 min 0 W/m² 1019.3 hPa
03:00 25.8 °C 10 °C 37 % 6 km/h (12 km/h) 0 mm0 mm 28.5 °C 28 °C 27.9 °C 2   0 cm 0 min 0 W/m² 1019.4 hPa
02:54 25.9 °C 10.1 °C 37 % 8 km/h (18 km/h) 0 mm0 mm 28.6 °C 28 °C 27.9 °C 2   0 cm 0 min 0 W/m² 1019.3 hPa
02:48 25.9 °C 10.1 °C 37 % 7 km/h (18 km/h) 0 mm0 mm 28.6 °C 28.1 °C 27.9 °C 2   0 cm 0 min 0 W/m² 1019.3 hPa
02:42 26 °C 10.2 °C 37 % 6 km/h (12 km/h) 0 mm0 mm 28.7 °C 28.1 °C 27.9 °C 2   0 cm 0 min 0 W/m² 1019.3 hPa
02:36 26.1 °C 9.9 °C 36 % 6 km/h (12 km/h) 0 mm0 mm 28.7 °C 28.1 °C 27.9 °C 2   0 cm 0 min 0 W/m² 1019.4 hPa
02:30 26.1 °C 9.9 °C 36 % 5 km/h (11 km/h) 0 mm0 mm 28.7 °C 28.2 °C 27.9 °C 2   0 cm 0 min 0 W/m² 1019.4 hPa
02:24 26.4 °C 10.1 °C 36 % 5 km/h (14 km/h) 0 mm0 mm 28.7 °C 28.2 °C 27.9 °C 2   0 cm 0 min 0 W/m² 1019.4 hPa
02:18 26.8 °C 10.1 °C 35 % 9 km/h (22 km/h) 0 mm0 mm 28.8 °C 28.3 °C 27.9 °C 2   0 cm 0 min 0 W/m² 1019.5 hPa
02:12 26.8 °C 10.1 °C 35 % 12 km/h (23 km/h) 0 mm0 mm 28.8 °C 28.2 °C 27.9 °C 2   0 cm 0 min 0 W/m² 1019.6 hPa
02:06 26.8 °C 10.1 °C 35 % 12 km/h (23 km/h) 0 mm0 mm 28.8 °C 28.3 °C 27.9 °C 2   0 cm 0 min 0 W/m² 1019.6 hPa
02:00 26.7 °C 10 °C 35 % 11 km/h (17 km/h) 0 mm0 mm 28.8 °C 28.3 °C 27.9 °C 2   0 cm 0 min 0 W/m² 1019.6 hPa
01:54 26.7 °C 10 °C 35 % 10 km/h (18 km/h) 0 mm0 mm 28.9 °C 28.3 °C 27.9 °C 2   0 cm 0 min 0 W/m² 1019.6 hPa
01:48 26.8 °C 10.1 °C 35 % 11 km/h (24 km/h) 0 mm0 mm 28.9 °C 28.4 °C 27.9 °C 2   0 cm 0 min 0 W/m² 1019.5 hPa
01:42 26.8 °C 10.1 °C 35 % 12 km/h (20 km/h) 0 mm0 mm 28.9 °C 28.5 °C 27.9 °C 2   0 cm 0 min 0 W/m² 1019.6 hPa
01:36 26.8 °C 10.1 °C 35 % 10 km/h (19 km/h) 0 mm0 mm 29 °C 28.5 °C 27.9 °C 2   0 cm 0 min 0 W/m² 1019.6 hPa
01:30 26.9 °C 9.7 °C 34 % 8 km/h (20 km/h) 0 mm0 mm 29 °C 28.5 °C 27.9 °C 2   0 cm 0 min 0 W/m² 1019.8 hPa
01:24 26.9 °C 9.7 °C 34 % 8 km/h (18 km/h) 0 mm0 mm 29 °C 28.6 °C 27.9 °C 2   0 cm 0 min 0 W/m² 1019.8 hPa
01:18 27 °C 9.8 °C 34 % 10 km/h (21 km/h) 0 mm0 mm 29.1 °C 28.6 °C 27.9 °C 2   0 cm 0 min 0 W/m² 1019.7 hPa
01:12 27.1 °C 9.4 °C 33 % 10 km/h (22 km/h) 0 mm0 mm 29.1 °C 28.6 °C 27.9 °C 2   0 cm 0 min 0 W/m² 1019.7 hPa
01:06 27.2 °C 9.5 °C 33 % 13 km/h (23 km/h) 0 mm0 mm 29.1 °C 28.7 °C 27.9 °C 2   0 cm 0 min 0 W/m² 1019.7 hPa
01:00 27.1 °C 9.4 °C 33 % 13 km/h (23 km/h) 0 mm0 mm 29.2 °C 28.8 °C 27.9 °C 2   0 cm 0 min 0 W/m² 1019.6 hPa
00:54 27.1 °C 9 °C 32 % 12 km/h (23 km/h) 0 mm0 mm 29.2 °C 28.8 °C 27.8 °C 2   0 cm 0 min 0 W/m² 1019.7 hPa
00:48 27.2 °C 9.1 °C 32 % 12 km/h (26 km/h) 0 mm0 mm 29.2 °C 28.8 °C 27.9 °C 2   0 cm 0 min 0 W/m² 1019.7 hPa
00:42 27.2 °C 8.6 °C 31 % 11 km/h (26 km/h) 0 mm0 mm 29.2 °C 28.8 °C 27.9 °C 2   0 cm 0 min 0 W/m² 1019.7 hPa
00:36 27.1 °C 8.5 °C 31 % 11 km/h (26 km/h) 0 mm0 mm 29.3 °C 28.9 °C 27.9 °C 2   0 cm 0 min 0 W/m² 1019.7 hPa
00:30 27.1 °C 8.5 °C 31 % 12 km/h (26 km/h) 0 mm0 mm 29.3 °C 28.9 °C 27.9 °C 2   0 cm 0 min 0 W/m² 1019.7 hPa
00:24 27.1 °C 8 °C 30 % 11 km/h (21 km/h) 0 mm0 mm 29.3 °C 28.9 °C 27.8 °C 2   0 cm 0 min 0 W/m² 1019.6 hPa
00:18 27.1 °C 8 °C 30 % 11 km/h (20 km/h) 0 mm0 mm 29.4 °C 29 °C 27.9 °C 2   0 cm 0 min 0 W/m² 1019.7 hPa
00:12 27 °C 7.9 °C 30 % 11 km/h (19 km/h) 0 mm0 mm 29.4 °C 29 °C 27.8 °C 2   0 cm 0 min 0 W/m² 1019.7 hPa
00:06 26.9 °C 7.9 °C 30 % 11 km/h (20 km/h) 0 mm0 mm 29.5 °C 29.1 °C 27.8 °C 2   0 cm 0 min 0 W/m² 1019.7 hPa
00:00 26.9 °C 7.9 °C 30 % 12 km/h (21 km/h) 0 mm0 mm 29.5 °C 29.1 °C 27.8 °C 2   0 cm 0 min 0 W/m² 1019.8 hPa

Données via Météo-France

Relevés météo à Nimes-Courbessac

Cette page rassemble les observations de la station de Nimes-Courbessac : température, humidité, vent, précipitations et pression atmosphérique. Les graphiques facilitent le suivi de la journée, tandis que le tableau donne accès aux mesures horaires et infra-horaires disponibles.

Pour replacer ces mesures dans leur contexte, consultez la climatologie de Nimes-Courbessac ainsi que ses normales et records. Retrouvez aussi la carte des observations météo en temps réel.